Zed — V7KU2 — position and weather

sailwx.info

Track history (hours):
 
Tides and Currents Weather Stations Pressure Air Temp Water Temp Dewpoint Dewpoint Depression Visibility Wind Speed Wind Dir Waves Ship Positions

Zed

Last reported at 2017-Dec-17 07:56 UTC. Time now 2018-Apr-20 18:43 UTC.
Position N 01°21' E 103°18'.
Warning: this ship's position is months out of date.

Length 225 m; draft 13.4 m.

Type: Cargo ship. MMSI: 538007106.

Date/timePositionNaut miles runAvg speedWind from/ knotsBaromVisibWave heightAir tempDewpointWater temp
2017-Dec-17 07:56N 01°21' E 103°18'512.6
2017-Dec-17 07:31N 01°18' E 103°22'611.9
2017-Dec-17 06:59N 01°14' E 103°27'611.9
2017-Dec-17 06:30N 01°13' E 103°32'511.0
2017-Dec-17 06:01N 01°11' E 103°37'510.6
2017-Dec-17 05:30N 01°09' E 103°42'4 8.6
2017-Dec-17 05:01N 01°10' E 103°47'5 9.9
2017-Dec-17 04:31N 01°12' E 103°51'610.9
2017-Dec-17 03:59N 01°14' E 103°56'5 9.6
2017-Dec-17 03:30N 01°17' E 104°00'1 0.0
2017-Dec-16 13:43N 01°17' E 104°00'1 2.2
2017-Dec-16 13:20N 01°17' E 103°60'3 6.3
2017-Dec-16 12:55N 01°16' E 103°58'1 2.3
2017-Dec-16 12:30N 01°16' E 103°58'  
Track history (hours):
 
Tides and Currents Weather Stations Pressure Air Temp Water Temp Dewpoint Dewpoint Depression Visibility Wind Speed Wind Dir Waves Ship Positions

Zed

Last reported at 2017-Dec-17 07:56 UTC. Time now 2018-Apr-20 18:43 UTC.
Position N 01°21' E 103°18'.
Warning: this ship's position is months out of date.

Length 225 m; draft 13.4 m.

Type: Cargo ship. MMSI: 538007106.

Date/timePositionNaut miles runAvg speedWind from/ knotsBaromVisibWave heightAir tempDewpointWater temp
2017-Dec-17 07:56N 01°21' E 103°18'512.6
2017-Dec-17 07:31N 01°18' E 103°22'611.9
2017-Dec-17 06:59N 01°14' E 103°27'611.9
2017-Dec-17 06:30N 01°13' E 103°32'511.0
2017-Dec-17 06:01N 01°11' E 103°37'510.6
2017-Dec-17 05:30N 01°09' E 103°42'4 8.6
2017-Dec-17 05:01N 01°10' E 103°47'5 9.9
2017-Dec-17 04:31N 01°12' E 103°51'610.9
2017-Dec-17 03:59N 01°14' E 103°56'5 9.6
2017-Dec-17 03:30N 01°17' E 104°00'1 0.0
2017-Dec-16 13:43N 01°17' E 104°00'1 2.2
2017-Dec-16 13:20N 01°17' E 103°60'3 6.3
2017-Dec-16 12:55N 01°16' E 103°58'1 2.3
2017-Dec-16 12:30N 01°16' E 103°58'  

Dump ship's entire track history